Terminal Aerodrome Forecast
Issued by NWS

Home | Current Version | Previous Version | Text Only | Print | Product List | Glossary Off
Versions: 1 2 3 4 5 6 7 8 9 10 11 12 13 14 15 16 17

000
FTUS43 KTOP 192300
TAFMHK
TAF
KMHK 192325Z 2000/2024 04011KT P6SM -SHRA SCT040 BKN060
     FM200300 05008KT 5SM -RA BR BKN020
     FM200600 03012KT 3SM -RA BR OVC007
     FM201100 03012KT 5SM -DZ BR OVC008=

USA.gov is the U.S. government's official web portal to all federal, state and local government web resources and services.